URKAI UHPP-UHQO
Flight info
| Callsign | URKAI |
|---|---|
| Flight time | 1h 9m |
| Altitude | 6500 |
| Route | DCT |
| Aircraft | PA24/L-SDFY/C |
Departure
| Time | 2026-04-28 06:09 |
|---|---|
| Airport | Yelizovo Airport (UHPP) |
Arrival
| Time | 2026-04-28 07:19 |
|---|---|
| Airport | Ozernovskiy Airport (UHQO) |
| Time | Latitude | Longitude | Altitude | Speed | Heading |
|---|---|---|---|---|---|
| 2026-04-28 05:51 | 53.17234 | 158.44374 | 123 ft | 0 kts | 247° |
| 2026-04-28 06:02 | 53.17230 | 158.44364 | 123 ft | 0 kts | 197° |
| 2026-04-28 06:02 | 53.17227 | 158.44391 | 123 ft | 8 kts | 28° |
| 2026-04-28 06:03 | 53.17253 | 158.44440 | 122 ft | 5 kts | 54° |
| 2026-04-28 06:03 | 53.17297 | 158.44424 | 123 ft | 10 kts | 339° |
| 2026-04-28 06:03 | 53.17357 | 158.44383 | 121 ft | 8 kts | 335° |
| 2026-04-28 06:03 | 53.17432 | 158.44331 | 122 ft | 16 kts | 338° |
| 2026-04-28 06:04 | 53.17565 | 158.44249 | 122 ft | 24 kts | 348° |
| 2026-04-28 06:04 | 53.17728 | 158.44191 | 123 ft | 22 kts | 348° |
| 2026-04-28 06:04 | 53.17861 | 158.44144 | 121 ft | 21 kts | 346° |
| 2026-04-28 06:04 | 53.17997 | 158.44099 | 123 ft | 19 kts | 347° |
| 2026-04-28 06:05 | 53.18122 | 158.44056 | 122 ft | 18 kts | 345° |
| 2026-04-28 06:05 | 53.18226 | 158.44013 | 122 ft | 13 kts | 347° |
| 2026-04-28 06:05 | 53.18262 | 158.44001 | 123 ft | 6 kts | 352° |
| 2026-04-28 06:05 | 53.18320 | 158.44012 | 123 ft | 10 kts | 18° |
| 2026-04-28 06:06 | 53.18329 | 158.44019 | 120 ft | 0 kts | 42° |
| 2026-04-28 06:07 | 53.18333 | 158.44026 | 123 ft | 6 kts | 43° |
| 2026-04-28 06:07 | 53.18345 | 158.44095 | 122 ft | 8 kts | 180° |
| 2026-04-28 06:08 | 53.18325 | 158.44097 | 123 ft | 0 kts | 152° |
| 2026-04-28 06:08 | 53.18288 | 158.44129 | 123 ft | 33 kts | 151° |
| 2026-04-28 06:08 | 53.17944 | 158.44401 | 265 ft | 57 kts | 161° |
| 2026-04-28 06:09 | 53.17533 | 158.44559 | 467 ft | 66 kts | 167° |
| 2026-04-28 06:09 | 53.17131 | 158.44792 | 768 ft | 61 kts | 160° |
| 2026-04-28 06:09 | 53.16731 | 158.45032 | 1004 ft | 57 kts | 157° |
| 2026-04-28 06:09 | 53.16337 | 158.45295 | 1191 ft | 63 kts | 156° |
| 2026-04-28 06:10 | 53.15966 | 158.45653 | 1442 ft | 63 kts | 150° |
| 2026-04-28 06:10 | 53.15593 | 158.46013 | 1746 ft | 61 kts | 159° |
| 2026-04-28 06:10 | 53.15196 | 158.46271 | 2046 ft | 65 kts | 156° |
| 2026-04-28 06:10 | 53.14793 | 158.46573 | 2337 ft | 64 kts | 158° |
| 2026-04-28 06:11 | 53.14352 | 158.46744 | 2572 ft | 64 kts | 160° |
| 2026-04-28 06:11 | 53.13930 | 158.47030 | 2768 ft | 67 kts | 146° |
| 2026-04-28 06:11 | 53.13524 | 158.47363 | 2995 ft | 67 kts | 151° |
| 2026-04-28 06:11 | 53.13077 | 158.47609 | 3218 ft | 66 kts | 158° |
| 2026-04-28 06:12 | 53.12608 | 158.47835 | 3464 ft | 72 kts | 157° |
| 2026-04-28 06:12 | 53.12126 | 158.48030 | 3693 ft | 74 kts | 169° |
| 2026-04-28 06:12 | 53.11604 | 158.47998 | 3950 ft | 74 kts | 176° |
| 2026-04-28 06:12 | 53.11070 | 158.47981 | 4153 ft | 79 kts | 176° |
| 2026-04-28 06:13 | 53.10539 | 158.48019 | 4406 ft | 79 kts | 165° |
| 2026-04-28 06:13 | 53.09988 | 158.48141 | 4680 ft | 79 kts | 168° |
| 2026-04-28 06:13 | 53.09422 | 158.48122 | 4913 ft | 84 kts | 175° |
| 2026-04-28 06:13 | 53.08849 | 158.48160 | 5163 ft | 83 kts | 180° |
| 2026-04-28 06:14 | 53.08273 | 158.47928 | 5427 ft | 85 kts | 186° |
| 2026-04-28 06:14 | 53.07682 | 158.48140 | 5639 ft | 88 kts | 156° |
| 2026-04-28 06:14 | 53.07157 | 158.48510 | 5901 ft | 87 kts | 157° |
| 2026-04-28 06:14 | 53.06576 | 158.48829 | 6168 ft | 83 kts | 160° |
| 2026-04-28 06:15 | 53.06001 | 158.49145 | 6338 ft | 92 kts | 163° |
| 2026-04-28 06:15 | 53.05423 | 158.49468 | 6606 ft | 87 kts | 160° |
| 2026-04-28 06:15 | 53.04753 | 158.49847 | 6541 ft | 119 kts | 161° |
| 2026-04-28 06:15 | 53.04043 | 158.50404 | 6875 ft | 103 kts | 153° |
| 2026-04-28 06:16 | 53.03355 | 158.50931 | 6937 ft | 117 kts | 158° |
| 2026-04-28 06:16 | 53.02645 | 158.51449 | 7239 ft | 106 kts | 160° |
| 2026-04-28 06:16 | 53.01919 | 158.51975 | 7211 ft | 128 kts | 155° |
| 2026-04-28 06:16 | 53.01086 | 158.52527 | 7257 ft | 136 kts | 164° |
| 2026-04-28 06:17 | 53.00216 | 158.53220 | 7390 ft | 127 kts | 155° |
| 2026-04-28 06:17 | 52.99502 | 158.53758 | 7598 ft | 128 kts | 160° |
| 2026-04-28 06:17 | 52.98714 | 158.54502 | 7610 ft | 137 kts | 152° |
| 2026-04-28 06:18 | 52.96941 | 158.56357 | 7402 ft | 156 kts | 145° |
| 2026-04-28 06:18 | 52.96017 | 158.57257 | 7438 ft | 155 kts | 160° |
| 2026-04-28 06:18 | 52.95064 | 158.57629 | 8030 ft | 107 kts | 173° |
| 2026-04-28 06:18 | 52.94253 | 158.58118 | 6959 ft | 186 kts | 147° |
| 2026-04-28 06:19 | 52.93399 | 158.59112 | 7813 ft | 128 kts | 156° |
| 2026-04-28 06:19 | 52.92608 | 158.59841 | 7908 ft | 129 kts | 153° |
| 2026-04-28 06:19 | 52.91887 | 158.60364 | 8296 ft | 111 kts | 186° |
| 2026-04-28 06:19 | 52.91149 | 158.59948 | 8428 ft | 108 kts | 218° |
| 2026-04-28 06:20 | 52.90549 | 158.59242 | 8570 ft | 109 kts | 222° |
| 2026-04-28 06:20 | 52.89890 | 158.58581 | 8737 ft | 107 kts | 224° |
| 2026-04-28 06:20 | 52.89317 | 158.57663 | 8602 ft | 129 kts | 227° |
| 2026-04-28 06:20 | 52.88695 | 158.56516 | 8495 ft | 140 kts | 225° |
| 2026-04-28 06:21 | 52.87878 | 158.55509 | 8274 ft | 157 kts | 214° |
| 2026-04-28 06:21 | 52.87025 | 158.54511 | 8480 ft | 141 kts | 230° |
| 2026-04-28 06:21 | 52.86279 | 158.53555 | 8583 ft | 136 kts | 217° |
| 2026-04-28 06:21 | 52.85476 | 158.52593 | 8482 ft | 144 kts | 215° |
| 2026-04-28 06:22 | 52.84644 | 158.51660 | 8501 ft | 145 kts | 224° |
| 2026-04-28 06:22 | 52.83823 | 158.50695 | 8494 ft | 144 kts | 214° |
| 2026-04-28 06:22 | 52.82970 | 158.49808 | 8498 ft | 145 kts | 217° |
| 2026-04-28 06:22 | 52.82169 | 158.48856 | 8507 ft | 144 kts | 213° |
| 2026-04-28 06:23 | 52.81339 | 158.47900 | 8495 ft | 146 kts | 221° |
| 2026-04-28 06:23 | 52.80524 | 158.46907 | 8486 ft | 147 kts | 232° |
| 2026-04-28 06:23 | 52.80152 | 158.45375 | 8496 ft | 143 kts | 254° |
| 2026-04-28 06:23 | 52.79933 | 158.43777 | 8501 ft | 142 kts | 261° |
| 2026-04-28 06:24 | 52.79779 | 158.42169 | 8501 ft | 141 kts | 261° |
| 2026-04-28 06:24 | 52.79587 | 158.40574 | 8501 ft | 142 kts | 258° |
| 2026-04-28 06:24 | 52.79609 | 158.38980 | 8503 ft | 142 kts | 295° |
| 2026-04-28 06:24 | 52.79960 | 158.37479 | 8482 ft | 143 kts | 292° |
| 2026-04-28 06:25 | 52.80338 | 158.35915 | 8501 ft | 112 kts | 289° |
| 2026-04-28 06:25 | 52.80528 | 158.35154 | 9199 ft | 84 kts | 288° |
| 2026-04-28 06:25 | 52.80759 | 158.34062 | 9103 ft | 106 kts | 292° |
| 2026-04-28 06:25 | 52.81057 | 158.32917 | 8912 ft | 131 kts | 294° |
| 2026-04-28 06:26 | 52.81432 | 158.31446 | 8795 ft | 138 kts | 292° |
| 2026-04-28 06:26 | 52.81799 | 158.29833 | 8436 ft | 156 kts | 288° |
| 2026-04-28 06:26 | 52.82110 | 158.28219 | 8224 ft | 137 kts | 292° |
| 2026-04-28 06:26 | 52.82441 | 158.26792 | 7651 ft | 138 kts | 287° |
| 2026-04-28 06:27 | 52.82760 | 158.25238 | 7034 ft | 143 kts | 289° |
| 2026-04-28 06:27 | 52.83028 | 158.23764 | 6781 ft | 124 kts | 289° |
| 2026-04-28 06:27 | 52.83294 | 158.22479 | 6541 ft | 119 kts | 292° |
| 2026-04-28 06:27 | 52.83529 | 158.21363 | 6720 ft | 85 kts | 289° |
| 2026-04-28 06:28 | 52.83684 | 158.20423 | 6536 ft | 96 kts | 288° |
| 2026-04-28 06:28 | 52.83891 | 158.19208 | 6423 ft | 89 kts | 296° |
| 2026-04-28 06:28 | 52.84059 | 158.18318 | 6396 ft | 86 kts | 290° |
| 2026-04-28 06:28 | 52.84230 | 158.17377 | 6391 ft | 85 kts | 287° |
| 2026-04-28 06:29 | 52.84391 | 158.16406 | 6411 ft | 89 kts | 288° |
| 2026-04-28 06:29 | 52.84578 | 158.15409 | 6448 ft | 93 kts | 294° |
| 2026-04-28 06:29 | 52.84804 | 158.14415 | 6461 ft | 95 kts | 293° |
| 2026-04-28 06:29 | 52.85024 | 158.13389 | 6500 ft | 95 kts | 292° |
| 2026-04-28 06:30 | 52.85250 | 158.12363 | 6551 ft | 95 kts | 292° |
| 2026-04-28 06:30 | 52.85481 | 158.11344 | 6587 ft | 95 kts | 292° |
| 2026-04-28 06:30 | 52.85706 | 158.10290 | 6533 ft | 105 kts | 293° |
| 2026-04-28 06:30 | 52.85884 | 158.09063 | 6564 ft | 106 kts | 276° |
| 2026-04-28 06:31 | 52.85938 | 158.07887 | 6617 ft | 106 kts | 275° |
| 2026-04-28 06:31 | 52.85966 | 158.06733 | 6744 ft | 96 kts | 274° |
| 2026-04-28 06:31 | 52.86031 | 158.05309 | 6310 ft | 143 kts | 276° |
| 2026-04-28 06:31 | 52.86100 | 158.03926 | 6734 ft | 118 kts | 276° |
| 2026-04-28 06:32 | 52.86170 | 158.02508 | 6963 ft | 89 kts | 275° |
| 2026-04-28 06:32 | 52.86102 | 158.02272 | 6669 ft | 87 kts | 182° |
| 2026-04-28 06:32 | 52.85678 | 158.00899 | 6220 ft | 161 kts | 290° |
| 2026-04-28 06:32 | 52.86097 | 157.99158 | 6070 ft | 163 kts | 283° |
| 2026-04-28 06:33 | 52.86191 | 157.97463 | 6049 ft | 142 kts | 277° |
| 2026-04-28 06:33 | 52.86189 | 157.95973 | 6159 ft | 120 kts | 260° |
| 2026-04-28 06:33 | 52.85824 | 157.94873 | 6268 ft | 102 kts | 225° |
| 2026-04-28 06:33 | 52.85218 | 157.94295 | 6338 ft | 88 kts | 207° |
| 2026-04-28 06:34 | 52.84693 | 157.93894 | 6528 ft | 86 kts | 202° |
| 2026-04-28 06:34 | 52.84069 | 157.93445 | 6543 ft | 111 kts | 202° |
| 2026-04-28 06:34 | 52.83293 | 157.92922 | 6558 ft | 128 kts | 206° |
| 2026-04-28 06:34 | 52.82431 | 157.92283 | 6521 ft | 142 kts | 205° |
| 2026-04-28 06:35 | 52.81511 | 157.91564 | 6522 ft | 148 kts | 209° |
| 2026-04-28 06:35 | 52.80631 | 157.90659 | 6533 ft | 150 kts | 213° |
| 2026-04-28 06:35 | 52.79753 | 157.89690 | 6533 ft | 152 kts | 217° |
| 2026-04-28 06:35 | 52.78900 | 157.88682 | 6533 ft | 153 kts | 216° |
| 2026-04-28 06:36 | 52.77990 | 157.87734 | 6546 ft | 155 kts | 210° |
| 2026-04-28 06:36 | 52.77045 | 157.86852 | 6551 ft | 156 kts | 213° |
| 2026-04-28 06:36 | 52.76147 | 157.85877 | 6536 ft | 156 kts | 211° |
| 2026-04-28 06:36 | 52.75227 | 157.84911 | 6521 ft | 157 kts | 216° |
| 2026-04-28 06:37 | 52.74346 | 157.83857 | 6513 ft | 156 kts | 218° |
| 2026-04-28 06:37 | 52.73470 | 157.82791 | 6515 ft | 156 kts | 217° |
| 2026-04-28 06:37 | 52.72629 | 157.81651 | 6513 ft | 158 kts | 222° |
| 2026-04-28 06:37 | 52.72090 | 157.80848 | 6514 ft | 157 kts | 220° |
| 2026-04-28 06:38 | 52.71262 | 157.79692 | 6511 ft | 155 kts | 225° |
| 2026-04-28 06:38 | 52.70509 | 157.78437 | 6510 ft | 154 kts | 227° |
| 2026-04-28 06:38 | 52.69776 | 157.77164 | 6505 ft | 151 kts | 226° |
| 2026-04-28 06:38 | 52.69018 | 157.75967 | 6497 ft | 150 kts | 224° |
| 2026-04-28 06:39 | 52.68232 | 157.74838 | 6502 ft | 150 kts | 221° |
| 2026-04-28 06:39 | 52.67412 | 157.73763 | 6496 ft | 150 kts | 218° |
| 2026-04-28 06:39 | 52.66594 | 157.72695 | 6498 ft | 150 kts | 216° |
| 2026-04-28 06:39 | 52.65715 | 157.71773 | 6498 ft | 150 kts | 213° |
| 2026-04-28 06:40 | 52.64861 | 157.70826 | 6496 ft | 150 kts | 215° |
| 2026-04-28 06:40 | 52.64014 | 157.69826 | 6494 ft | 150 kts | 216° |
| 2026-04-28 06:40 | 52.63207 | 157.68758 | 6494 ft | 149 kts | 223° |
| 2026-04-28 06:40 | 52.62427 | 157.67636 | 6492 ft | 149 kts | 220° |
| 2026-04-28 06:41 | 52.61602 | 157.66612 | 6490 ft | 149 kts | 214° |
| 2026-04-28 06:41 | 52.60663 | 157.65910 | 6484 ft | 149 kts | 199° |
| 2026-04-28 06:41 | 52.59636 | 157.65685 | 6481 ft | 149 kts | 179° |
| 2026-04-28 06:41 | 52.58610 | 157.65918 | 6482 ft | 150 kts | 168° |
| 2026-04-28 06:42 | 52.57641 | 157.66549 | 6488 ft | 151 kts | 151° |
| 2026-04-28 06:42 | 52.56751 | 157.67460 | 6487 ft | 151 kts | 147° |
| 2026-04-28 06:42 | 52.55869 | 157.68346 | 6489 ft | 151 kts | 152° |
| 2026-04-28 06:42 | 52.54948 | 157.69171 | 6488 ft | 151 kts | 148° |
| 2026-04-28 06:43 | 52.54023 | 157.69992 | 6488 ft | 151 kts | 153° |
| 2026-04-28 06:43 | 52.53104 | 157.70814 | 6487 ft | 150 kts | 152° |
| 2026-04-28 06:43 | 52.52168 | 157.71593 | 6489 ft | 151 kts | 160° |
| 2026-04-28 06:43 | 52.51155 | 157.72009 | 6489 ft | 151 kts | 174° |
| 2026-04-28 06:44 | 52.50107 | 157.72151 | 6490 ft | 150 kts | 179° |
| 2026-04-28 06:44 | 52.49066 | 157.72044 | 6491 ft | 150 kts | 193° |
| 2026-04-28 06:44 | 52.48096 | 157.71440 | 6489 ft | 149 kts | 211° |
| 2026-04-28 06:44 | 52.47225 | 157.70526 | 6483 ft | 149 kts | 215° |
| 2026-04-28 06:45 | 52.46428 | 157.69489 | 6486 ft | 148 kts | 226° |
| 2026-04-28 06:45 | 52.45686 | 157.68329 | 6490 ft | 147 kts | 225° |
| 2026-04-28 06:45 | 52.44953 | 157.67156 | 6487 ft | 147 kts | 223° |
| 2026-04-28 06:45 | 52.44191 | 157.66019 | 6483 ft | 148 kts | 220° |
| 2026-04-28 06:46 | 52.43396 | 157.64943 | 6484 ft | 148 kts | 217° |
| 2026-04-28 06:46 | 52.42567 | 157.63935 | 6482 ft | 148 kts | 220° |
| 2026-04-28 06:46 | 52.41804 | 157.62799 | 6483 ft | 148 kts | 225° |
| 2026-04-28 06:46 | 52.41068 | 157.61647 | 6486 ft | 148 kts | 223° |
| 2026-04-28 06:47 | 52.40288 | 157.60539 | 6488 ft | 148 kts | 223° |
| 2026-04-28 06:47 | 52.39535 | 157.59378 | 6486 ft | 149 kts | 224° |
| 2026-04-28 06:47 | 52.38783 | 157.58206 | 6483 ft | 149 kts | 223° |
| 2026-04-28 06:47 | 52.37996 | 157.57099 | 6482 ft | 149 kts | 222° |
| 2026-04-28 06:48 | 52.37228 | 157.55965 | 6480 ft | 149 kts | 223° |
| 2026-04-28 06:48 | 52.36432 | 157.54879 | 6483 ft | 149 kts | 218° |
| 2026-04-28 06:48 | 52.35594 | 157.53880 | 6480 ft | 149 kts | 216° |
| 2026-04-28 06:48 | 52.34733 | 157.52918 | 6476 ft | 149 kts | 215° |
| 2026-04-28 06:49 | 52.33893 | 157.51916 | 6475 ft | 149 kts | 218° |
| 2026-04-28 06:49 | 52.33056 | 157.50909 | 6482 ft | 149 kts | 215° |
| 2026-04-28 06:49 | 52.32183 | 157.49992 | 6478 ft | 149 kts | 211° |
| 2026-04-28 06:49 | 52.31280 | 157.49146 | 6475 ft | 150 kts | 210° |
| 2026-04-28 06:50 | 52.30397 | 157.48285 | 6479 ft | 150 kts | 211° |
| 2026-04-28 06:50 | 52.29500 | 157.47420 | 6479 ft | 150 kts | 213° |
| 2026-04-28 06:50 | 52.28641 | 157.46455 | 6479 ft | 150 kts | 216° |
| 2026-04-28 06:50 | 52.27775 | 157.45509 | 6481 ft | 150 kts | 216° |
| 2026-04-28 06:51 | 52.26937 | 157.44484 | 6474 ft | 150 kts | 215° |
| 2026-04-28 06:51 | 52.26060 | 157.43562 | 6476 ft | 150 kts | 212° |
| 2026-04-28 06:51 | 52.25205 | 157.42585 | 6478 ft | 150 kts | 219° |
| 2026-04-28 06:51 | 52.24410 | 157.41472 | 6475 ft | 150 kts | 226° |
| 2026-04-28 06:52 | 52.23627 | 157.40348 | 6480 ft | 150 kts | 224° |
| 2026-04-28 06:52 | 52.22888 | 157.39142 | 6476 ft | 150 kts | 224° |
| 2026-04-28 06:52 | 52.22120 | 157.38020 | 6479 ft | 150 kts | 226° |
| 2026-04-28 06:52 | 52.21394 | 157.36792 | 6477 ft | 150 kts | 231° |
| 2026-04-28 06:53 | 52.20671 | 157.35559 | 6477 ft | 150 kts | 224° |
| 2026-04-28 06:53 | 52.19910 | 157.34380 | 6480 ft | 151 kts | 228° |
| 2026-04-28 06:53 | 52.19211 | 157.33109 | 6474 ft | 150 kts | 228° |
| 2026-04-28 06:53 | 52.18436 | 157.31990 | 6476 ft | 151 kts | 220° |
| 2026-04-28 06:54 | 52.17644 | 157.30866 | 6476 ft | 151 kts | 221° |
| 2026-04-28 06:54 | 52.16819 | 157.29795 | 6474 ft | 152 kts | 218° |
| 2026-04-28 06:54 | 52.15959 | 157.28790 | 6478 ft | 152 kts | 208° |
| 2026-04-28 06:54 | 52.15027 | 157.27976 | 6468 ft | 153 kts | 209° |
| 2026-04-28 06:55 | 52.14071 | 157.27203 | 6474 ft | 154 kts | 208° |
| 2026-04-28 06:55 | 52.13152 | 157.26319 | 6470 ft | 154 kts | 212° |
| 2026-04-28 06:55 | 52.12228 | 157.25422 | 6473 ft | 154 kts | 215° |
| 2026-04-28 06:55 | 52.11297 | 157.24536 | 6481 ft | 156 kts | 206° |
| 2026-04-28 06:56 | 52.10374 | 157.23608 | 6475 ft | 156 kts | 214° |
| 2026-04-28 06:56 | 52.09460 | 157.22684 | 6479 ft | 158 kts | 212° |
| 2026-04-28 06:56 | 52.08527 | 157.21713 | 6482 ft | 159 kts | 212° |
| 2026-04-28 06:56 | 52.07599 | 157.20739 | 6466 ft | 159 kts | 210° |
| 2026-04-28 06:57 | 52.06653 | 157.19815 | 6475 ft | 159 kts | 212° |
| 2026-04-28 06:57 | 52.05725 | 157.18837 | 6467 ft | 159 kts | 208° |
| 2026-04-28 06:57 | 52.04760 | 157.17955 | 6484 ft | 158 kts | 211° |
| 2026-04-28 06:57 | 52.03823 | 157.16995 | 6505 ft | 159 kts | 212° |
| 2026-04-28 06:58 | 52.02848 | 157.16150 | 6476 ft | 158 kts | 220° |
| 2026-04-28 06:58 | 52.01921 | 157.15180 | 6481 ft | 158 kts | 211° |
| 2026-04-28 06:58 | 52.00995 | 157.14230 | 6477 ft | 156 kts | 212° |
| 2026-04-28 06:58 | 52.00076 | 157.13337 | 6478 ft | 155 kts | 211° |
| 2026-04-28 06:59 | 51.99159 | 157.12432 | 6462 ft | 155 kts | 211° |
| 2026-04-28 06:59 | 51.98248 | 157.11501 | 6479 ft | 154 kts | 212° |
| 2026-04-28 06:59 | 51.97347 | 157.10569 | 6468 ft | 153 kts | 213° |
| 2026-04-28 06:59 | 51.96498 | 157.09525 | 6475 ft | 153 kts | 216° |
| 2026-04-28 07:00 | 51.95608 | 157.08578 | 6477 ft | 154 kts | 218° |
| 2026-04-28 07:00 | 51.94748 | 157.07554 | 6478 ft | 154 kts | 219° |
| 2026-04-28 07:00 | 51.93873 | 157.06550 | 6484 ft | 153 kts | 214° |
| 2026-04-28 07:00 | 51.93029 | 157.05497 | 6480 ft | 153 kts | 214° |
| 2026-04-28 07:01 | 51.92180 | 157.04466 | 6478 ft | 152 kts | 216° |
| 2026-04-28 07:01 | 51.91326 | 157.03483 | 6479 ft | 152 kts | 218° |
| 2026-04-28 07:01 | 51.90486 | 157.02436 | 6483 ft | 152 kts | 219° |
| 2026-04-28 07:01 | 51.89634 | 157.01421 | 6483 ft | 152 kts | 215° |
| 2026-04-28 07:02 | 51.88790 | 157.00388 | 6486 ft | 153 kts | 216° |
| 2026-04-28 07:02 | 51.87942 | 156.99339 | 6486 ft | 155 kts | 216° |
| 2026-04-28 07:02 | 51.87058 | 156.98331 | 6483 ft | 156 kts | 214° |
| 2026-04-28 07:02 | 51.86177 | 156.97313 | 6484 ft | 156 kts | 224° |
| 2026-04-28 07:03 | 51.85329 | 156.96202 | 6484 ft | 156 kts | 219° |
| 2026-04-28 07:03 | 51.84498 | 156.95095 | 6481 ft | 156 kts | 218° |
| 2026-04-28 07:03 | 51.83645 | 156.93994 | 6484 ft | 157 kts | 219° |
| 2026-04-28 07:03 | 51.82818 | 156.92838 | 6482 ft | 158 kts | 220° |
| 2026-04-28 07:04 | 51.82133 | 156.91455 | 6488 ft | 158 kts | 233° |
| 2026-04-28 07:04 | 51.81462 | 156.90066 | 6401 ft | 163 kts | 231° |
| 2026-04-28 07:04 | 51.80734 | 156.88472 | 5993 ft | 180 kts | 233° |
| 2026-04-28 07:04 | 51.79814 | 156.87255 | 5895 ft | 167 kts | 219° |
| 2026-04-28 07:05 | 51.79049 | 156.85830 | 5363 ft | 171 kts | 225° |
| 2026-04-28 07:05 | 51.78197 | 156.84578 | 5134 ft | 150 kts | 222° |
| 2026-04-28 07:05 | 51.77493 | 156.83410 | 4714 ft | 153 kts | 230° |
| 2026-04-28 07:05 | 51.76807 | 156.82222 | 4632 ft | 135 kts | 220° |
| 2026-04-28 07:06 | 51.76093 | 156.81110 | 4228 ft | 147 kts | 226° |
| 2026-04-28 07:06 | 51.75423 | 156.79920 | 4089 ft | 139 kts | 224° |
| 2026-04-28 07:06 | 51.74736 | 156.78797 | 3848 ft | 142 kts | 217° |
| 2026-04-28 07:06 | 51.74030 | 156.77745 | 3668 ft | 138 kts | 223° |
| 2026-04-28 07:07 | 51.73346 | 156.76671 | 3476 ft | 137 kts | 223° |
| 2026-04-28 07:07 | 51.72647 | 156.75598 | 3258 ft | 137 kts | 224° |
| 2026-04-28 07:07 | 51.71987 | 156.74516 | 3064 ft | 135 kts | 223° |
| 2026-04-28 07:07 | 51.71329 | 156.73405 | 2780 ft | 139 kts | 223° |
| 2026-04-28 07:08 | 51.70631 | 156.72377 | 2646 ft | 132 kts | 221° |
| 2026-04-28 07:08 | 51.69931 | 156.71393 | 2447 ft | 133 kts | 226° |
| 2026-04-28 07:08 | 51.69278 | 156.70421 | 2477 ft | 131 kts | 221° |
| 2026-04-28 07:08 | 51.68599 | 156.69396 | 2503 ft | 136 kts | 225° |
| 2026-04-28 07:09 | 51.67892 | 156.68340 | 2508 ft | 140 kts | 224° |
| 2026-04-28 07:09 | 51.67171 | 156.67238 | 2499 ft | 143 kts | 226° |
| 2026-04-28 07:09 | 51.66479 | 156.66052 | 2504 ft | 146 kts | 224° |
| 2026-04-28 07:09 | 51.65726 | 156.64924 | 2498 ft | 148 kts | 221° |
| 2026-04-28 07:10 | 51.64920 | 156.63890 | 2487 ft | 150 kts | 220° |
| 2026-04-28 07:10 | 51.64165 | 156.62749 | 2506 ft | 149 kts | 225° |
| 2026-04-28 07:10 | 51.63426 | 156.61562 | 2506 ft | 150 kts | 222° |
| 2026-04-28 07:10 | 51.62713 | 156.60353 | 2501 ft | 150 kts | 230° |
| 2026-04-28 07:11 | 51.61941 | 156.59231 | 2492 ft | 150 kts | 216° |
| 2026-04-28 07:11 | 51.61204 | 156.58052 | 2503 ft | 150 kts | 220° |
| 2026-04-28 07:11 | 51.60459 | 156.56897 | 2506 ft | 150 kts | 230° |
| 2026-04-28 07:11 | 51.59677 | 156.55900 | 2580 ft | 139 kts | 224° |
| 2026-04-28 07:12 | 51.58942 | 156.54721 | 2336 ft | 153 kts | 224° |
| 2026-04-28 07:12 | 51.58252 | 156.53630 | 2580 ft | 132 kts | 223° |
| 2026-04-28 07:12 | 51.57425 | 156.52812 | 2366 ft | 146 kts | 201° |
| 2026-04-28 07:12 | 51.56431 | 156.52278 | 2096 ft | 157 kts | 196° |
| 2026-04-28 07:13 | 51.55411 | 156.51918 | 2040 ft | 145 kts | 188° |
| 2026-04-28 07:13 | 51.54369 | 156.51445 | 1586 ft | 164 kts | 199° |
| 2026-04-28 07:13 | 51.53382 | 156.50925 | 1281 ft | 142 kts | 205° |
| 2026-04-28 07:13 | 51.52411 | 156.50614 | 850 ft | 132 kts | 186° |
| 2026-04-28 07:14 | 51.51580 | 156.50560 | 777 ft | 105 kts | 182° |
| 2026-04-28 07:14 | 51.50874 | 156.50427 | 819 ft | 96 kts | 192° |
| 2026-04-28 07:14 | 51.50220 | 156.50458 | 789 ft | 92 kts | 155° |
| 2026-04-28 07:14 | 51.49914 | 156.51155 | 874 ft | 78 kts | 83° |
| 2026-04-28 07:15 | 51.50250 | 156.51855 | 749 ft | 85 kts | 19° |
| 2026-04-28 07:15 | 51.50745 | 156.51741 | 706 ft | 83 kts | 323° |
| 2026-04-28 07:15 | 51.50859 | 156.50873 | 652 ft | 90 kts | 258° |
| 2026-04-28 07:15 | 51.50696 | 156.49874 | 676 ft | 84 kts | 271° |
| 2026-04-28 07:16 | 51.50503 | 156.49057 | 695 ft | 82 kts | 249° |
| 2026-04-28 07:16 | 51.50131 | 156.48416 | 765 ft | 80 kts | 227° |
| 2026-04-28 07:16 | 51.49737 | 156.47860 | 857 ft | 72 kts | 262° |
| 2026-04-28 07:16 | 51.50035 | 156.47389 | 842 ft | 67 kts | 13° |
| 2026-04-28 07:17 | 51.50519 | 156.47774 | 772 ft | 76 kts | 54° |
| 2026-04-28 07:17 | 51.50557 | 156.48628 | 771 ft | 86 kts | 99° |
| 2026-04-28 07:17 | 51.50375 | 156.49614 | 646 ft | 97 kts | 86° |
| 2026-04-28 07:17 | 51.50389 | 156.50620 | 598 ft | 87 kts | 83° |
| 2026-04-28 07:18 | 51.50317 | 156.51579 | 422 ft | 85 kts | 102° |
| 2026-04-28 07:18 | 51.50202 | 156.52484 | 296 ft | 81 kts | 92° |
| 2026-04-28 07:18 | 51.50076 | 156.53345 | 118 ft | 76 kts | 98° |
| 2026-04-28 07:18 | 51.49955 | 156.54065 | 49 ft | 54 kts | 89° |
| 2026-04-28 07:19 | 51.49927 | 156.54341 | 49 ft | 8 kts | 104° |
| 2026-04-28 07:19 | 51.49926 | 156.54389 | 49 ft | 6 kts | 26° |
| 2026-04-28 07:19 | 51.49934 | 156.54288 | 46 ft | 15 kts | 273° |
| 2026-04-28 07:19 | 51.49959 | 156.54075 | 49 ft | 22 kts | 286° |
| 2026-04-28 07:20 | 51.49983 | 156.53907 | 53 ft | 15 kts | 280° |
| 2026-04-28 07:20 | 51.50014 | 156.53678 | 52 ft | 27 kts | 288° |
| 2026-04-28 07:20 | 51.50054 | 156.53469 | 52 ft | 10 kts | 277° |
| 2026-04-28 07:20 | 51.50054 | 156.53435 | 57 ft | 5 kts | 238° |
| 2026-04-28 07:21 | 51.50030 | 156.53454 | 56 ft | 9 kts | 94° |
| 2026-04-28 07:21 | 51.50036 | 156.53465 | 57 ft | 0 kts | 34° |